ブダペスト の空港の天気 - METARとTAF

ブダペスト/フェリヘギ空港 ( LHBP / BUD ) - ハンガリー ブダペスト
飛行場実況気象(Metar)
観測時間01/23 01:00 CET (01/23 00:00 UTC)
風向・風速不定 1m/s
視程6000m
天気現象地霧
なし
気温-6℃
湿度93%
気圧1032hPa
METARLHBP 230000Z VRB01KT 6000 MIFG NSC M06/M07 Q1032 NOSIG
過去の天気等 Google飛行場航空写真 Wunderground天気予報

過去48時間のMETAR

飛行場予報(TAF)
発表時間: 1/23 00:15 CET (1/22 23:15 UTC)
予報対象時間: 23日1時 CET ~ 24日1時 CET
風向・風速不定 2m/s
視程10km以上
なし
23日2時 CET ~ 23日9時 CET に一時的に
視程4000m
天気現象氷地霧 もや
23日12時 CET ~ 23日14時 CET に徐々に
風向・風速南 3m/s
23日19時 CET ~ 24日1時 CET に一時的に
視程1400m
天気現象氷散在した霧 もや
全天の8割程度の雲 雲底高度 150m
TAF LHBP 222315Z 2300/2324 VRB03KT CAVOK
TEMPO 2301/2308 4000 FZMIFG BR
BECMG 2311/2313 18005KT
TEMPO 2318/2324 1400 FZBCFG BR BKN005